Time;durP1;ratioP1;P1;durP2;ratioP2;P2;SDS_P1;SDS_P2;PMS_P1;PMS_P2;Temp;Humidity;BMP_temperature;BMP_pressure;BME280_temperature;BME280_humidity;BME280_pressure;Samples;Min_cycle;Max_cycle;Signal;HPM_P1;HPM_P2
2023/04/29 00:00:57;;;;;;;39.85;25.95;;;10.30;99.90;;;;;;4960857;28;20043;-83
2023/04/29 00:03:27;;;;;;;42.13;25.15;;;9.10;99.90;;;;;;4949528;28;20134;-83
2023/04/29 00:05:53;;;;;;;48.63;27.33;;;11.30;99.90;;;;;;4959614;28;20130;-84
2023/04/29 00:08:20;;;;;;;49.20;26.50;;;9.00;99.90;;;;;;4966430;28;20478;-83
2023/04/29 00:10:45;;;;;;;46.00;26.33;;;9.00;99.90;;;;;;4958764;28;20570;-83
2023/04/29 00:13:12;;;;;;;42.70;24.45;;;10.60;99.90;;;;;;4960449;28;20050;-83
2023/04/29 00:15:39;;;;;;;37.70;24.52;;;9.00;99.90;;;;;;4961467;28;20101;-83
2023/04/29 00:18:04;;;;;;;40.40;24.77;;;10.10;99.90;;;;;;4960366;28;20487;-83
2023/04/29 00:20:30;;;;;;;32.75;24.13;;;8.90;99.90;;;;;;4959366;28;20058;-84
2023/04/29 00:22:56;;;;;;;39.42;24.50;;;9.00;99.90;;;;;;4962930;28;20118;-83
2023/04/29 00:25:21;;;;;;;42.75;25.50;;;9.40;99.90;;;;;;4962564;28;20409;-84
2023/04/29 00:27:47;;;;;;;53.42;31.00;;;11.10;99.90;;;;;;4959963;28;20130;-83
2023/04/29 00:30:13;;;;;;;37.90;23.80;;;9.00;99.90;;;;;;4958635;28;20059;-83
2023/04/29 00:32:38;;;;;;;34.42;22.08;;;11.00;99.90;;;;;;4959736;28;20068;-84
2023/04/29 00:35:04;;;;;;;36.10;22.17;;;10.10;99.90;;;;;;4959965;28;20066;-84
2023/04/29 00:37:30;;;;;;;37.40;21.83;;;8.90;99.90;;;;;;4979055;28;20380;-84
2023/04/29 00:39:56;;;;;;;33.70;23.38;;;9.80;99.90;;;;;;4968807;28;20051;-84
2023/04/29 00:42:21;;;;;;;35.20;21.05;;;8.80;99.90;;;;;;4945914;28;20513;-83
2023/04/29 00:44:47;;;;;;;35.78;20.50;;;10.90;99.90;;;;;;4961759;28;20059;-83
2023/04/29 00:47:12;;;;;;;37.05;21.02;;;11.00;99.90;;;;;;4957611;28;20554;-83
2023/04/29 00:49:39;;;;;;;31.27;20.65;;;8.90;99.90;;;;;;4965223;28;20093;-83
2023/04/29 00:52:08;;;;;;;35.58;19.20;;;9.70;99.90;;;;;;4958280;28;20083;-84
2023/04/29 00:54:36;;;;;;;33.00;21.13;;;11.40;99.90;;;;;;4925804;29;20059;-83
2023/04/29 00:57:05;;;;;;;29.23;18.85;;;8.90;99.90;;;;;;4959892;28;20079;-82
2023/04/29 00:59:32;;;;;;;29.95;18.55;;;8.90;99.90;;;;;;4959710;28;20051;-82
2023/04/29 01:02:03;;;;;;;34.80;18.63;;;8.90;99.90;;;;;;4964894;28;20062;-83
2023/04/29 01:04:30;;;;;;;28.17;19.05;;;8.70;99.90;;;;;;4958285;28;20086;-84
2023/04/29 01:07:43;;;;;;;31.80;19.15;;;8.80;99.90;;;;;;4961754;28;20054;-84
2023/04/29 01:10:31;;;;;;;29.33;18.48;;;8.80;99.90;;;;;;4942809;28;20059;-84
2023/04/29 01:13:29;;;;;;;36.50;18.20;;;8.80;99.90;;;;;;4960589;28;20054;-84
2023/04/29 01:16:04;;;;;;;31.38;19.42;;;8.80;99.90;;;;;;4941983;28;20058;-84
2023/04/29 01:18:40;;;;;;;29.85;17.88;;;10.80;99.90;;;;;;4955826;28;20130;-84
2023/04/29 01:21:05;;;;;;;30.27;18.05;;;11.10;99.90;;;;;;4959327;28;20519;-84
2023/04/29 01:23:31;;;;;;;29.80;18.65;;;8.70;99.90;;;;;;4958236;28;20055;-84
2023/04/29 01:25:57;;;;;;;27.67;18.17;;;8.70;99.90;;;;;;4960696;28;20061;-85
2023/04/29 01:28:46;;;;;;;30.92;17.67;;;8.70;99.90;;;;;;4961350;28;20423;-84
2023/04/29 01:31:30;;;;;;;27.83;16.73;;;9.90;99.90;;;;;;4973351;28;20054;-83
2023/04/29 01:34:17;;;;;;;26.15;16.48;;;8.70;99.90;;;;;;4961780;28;20113;-85
2023/04/29 01:37:01;;;;;;;21.92;17.05;;;8.80;99.90;;;;;;4960093;28;20109;-85
2023/04/29 01:39:35;;;;;;;28.95;17.85;;;8.80;99.90;;;;;;4958419;28;20047;-84
2023/04/29 01:42:08;;;;;;;26.92;17.60;;;8.70;99.90;;;;;;4943296;28;20078;-84
2023/04/29 01:44:37;;;;;;;23.90;16.67;;;8.70;99.90;;;;;;4958514;28;20138;-84
2023/04/29 01:47:04;;;;;;;29.63;17.50;;;11.00;99.90;;;;;;4962705;28;20051;-85
2023/04/29 01:49:35;;;;;;;34.00;19.20;;;10.10;99.90;;;;;;4945023;28;20549;-84
2023/04/29 01:52:00;;;;;;;30.02;18.30;;;8.70;99.90;;;;;;4958909;28;20055;-84
2023/04/29 01:54:26;;;;;;;29.77;17.75;;;8.40;99.90;;;;;;4941470;29;20058;-85
2023/04/29 01:56:52;;;;;;;27.15;17.35;;;8.70;99.90;;;;;;4959755;28;20055;-84
2023/04/29 01:59:19;;;;;;;30.30;18.60;;;8.60;99.90;;;;;;4960205;28;20466;-84
2023/04/29 02:01:45;;;;;;;31.23;18.13;;;8.70;99.90;;;;;;4944337;28;20055;-83
2023/04/29 02:04:11;;;;;;;29.48;19.63;;;10.00;99.90;;;;;;4941377;29;20054;-85
2023/04/29 02:06:37;;;;;;;26.70;17.85;;;8.70;99.90;;;;;;4957241;28;20059;-84
2023/04/29 02:09:03;;;;;;;25.95;18.08;;;8.70;99.90;;;;;;4944560;28;20065;-84
2023/04/29 02:11:28;;;;;;;28.45;18.60;;;8.60;99.90;;;;;;4960420;28;20051;-82
2023/04/29 02:13:54;;;;;;;25.88;18.42;;;8.70;99.90;;;;;;4943222;28;20050;-82
2023/04/29 02:16:20;;;;;;;30.33;19.15;;;7.80;99.90;;;;;;4958949;28;20456;-82
2023/04/29 02:18:45;;;;;;;31.90;18.95;;;10.00;99.90;;;;;;4915185;28;20051;-82
2023/04/29 02:21:11;;;;;;;24.42;18.85;;;10.60;99.90;;;;;;4962512;28;20047;-83
2023/04/29 02:23:37;;;;;;;30.00;20.38;;;8.50;99.90;;;;;;4963246;28;20051;-83
2023/04/29 02:26:06;;;;;;;28.13;18.15;;;9.50;99.90;;;;;;4959337;28;20047;-83
2023/04/29 02:28:33;;;;;;;28.75;19.60;;;10.20;99.90;;;;;;4967616;28;20042;-82
2023/04/29 02:30:58;;;;;;;29.33;19.38;;;8.40;99.90;;;;;;4971766;28;20133;-83
2023/04/29 02:33:24;;;;;;;30.45;18.58;;;9.70;99.90;;;;;;4952502;28;20133;-82
2023/04/29 02:35:49;;;;;;;27.52;18.85;;;8.80;99.90;;;;;;4971165;28;20042;-83
2023/04/29 02:38:15;;;;;;;24.85;17.25;;;8.40;99.90;;;;;;4968553;28;20047;-83
2023/04/29 02:40:45;;;;;;;29.42;19.55;;;9.20;99.90;;;;;;4968739;28;20054;-82
2023/04/29 02:43:12;;;;;;;30.05;18.50;;;8.20;99.90;;;;;;4966739;28;20090;-82
2023/04/29 02:45:39;;;;;;;26.63;18.80;;;9.40;99.90;;;;;;4967022;28;20050;-83
2023/04/29 02:48:08;;;;;;;31.67;20.38;;;8.80;99.90;;;;;;4964273;28;20500;-83
2023/04/29 02:50:34;;;;;;;28.42;19.45;;;9.80;99.90;;;;;;4965795;28;20051;-83
2023/04/29 02:53:00;;;;;;;34.20;20.73;;;9.70;99.90;;;;;;4949414;28;20457;-83
2023/04/29 02:55:25;;;;;;;28.00;19.60;;;9.80;99.90;;;;;;4953243;28;20086;-83
2023/04/29 02:57:51;;;;;;;33.05;20.98;;;8.30;99.90;;;;;;4954184;28;20483;-83
2023/04/29 03:00:17;;;;;;;33.63;21.25;;;8.10;99.90;;;;;;4970473;28;20054;-83
2023/04/29 03:02:43;;;;;;;31.98;21.05;;;8.30;99.90;;;;;;4952181;28;20495;-84
2023/04/29 03:05:09;;;;;;;33.05;20.75;;;8.20;99.90;;;;;;4969111;28;20047;-84
2023/04/29 03:07:34;;;;;;;33.83;19.92;;;10.50;99.90;;;;;;4965409;28;20487;-83
2023/04/29 03:10:00;;;;;;;35.85;20.48;;;8.30;99.90;;;;;;4950297;28;20058;-83
2023/04/29 03:12:26;;;;;;;32.30;20.02;;;8.30;99.90;;;;;;4968309;28;20043;-84
2023/04/29 03:14:52;;;;;;;36.60;21.45;;;10.00;99.90;;;;;;4949291;28;20047;-83
2023/04/29 03:17:17;;;;;;;29.83;18.85;;;10.20;99.90;;;;;;4933494;28;20050;-82
2023/04/29 03:19:44;;;;;;;29.45;18.50;;;10.10;99.90;;;;;;4966791;28;20130;-83
2023/04/29 03:22:11;;;;;;;31.35;17.92;;;10.60;99.90;;;;;;4958778;28;20512;-83
2023/04/29 03:24:37;;;;;;;27.30;16.73;;;8.30;99.90;;;;;;4966861;28;20695;-83
2023/04/29 03:27:03;;;;;;;29.75;17.92;;;8.30;99.90;;;;;;4963641;28;20058;-83
2023/04/29 03:29:30;;;;;;;30.88;15.50;;;9.50;99.90;;;;;;4962290;28;20082;-83
2023/04/29 03:31:56;;;;;;;24.80;16.05;;;8.30;99.90;;;;;;4951708;28;20055;-83
2023/04/29 03:34:22;;;;;;;26.38;15.05;;;9.90;99.90;;;;;;4959933;28;20399;-83
2023/04/29 03:36:48;;;;;;;32.83;16.05;;;9.70;99.90;;;;;;4943350;28;20047;-84
2023/04/29 03:39:13;;;;;;;24.30;14.80;;;10.20;99.90;;;;;;4964277;28;20061;-83
2023/04/29 03:41:39;;;;;;;26.60;15.20;;;8.30;99.90;;;;;;4964127;28;20052;-83
2023/04/29 03:44:05;;;;;;;27.52;14.73;;;10.60;99.90;;;;;;4945284;28;20047;-83
2023/04/29 03:46:30;;;;;;;27.40;14.82;;;10.10;99.90;;;;;;4963421;28;20043;-83
2023/04/29 03:48:58;;;;;;;27.85;14.77;;;8.40;99.90;;;;;;4962511;28;20061;-84
2023/04/29 03:51:24;;;;;;;27.50;14.57;;;8.30;99.90;;;;;;4958825;28;20047;-83
2023/04/29 03:53:52;;;;;;;29.23;15.50;;;8.30;99.90;;;;;;4943535;28;20051;-83
2023/04/29 03:56:17;;;;;;;27.60;15.93;;;10.30;99.90;;;;;;4964299;28;20098;-83
2023/04/29 03:58:43;;;;;;;28.77;14.98;;;10.60;99.90;;;;;;4945767;28;20530;-83
2023/04/29 04:01:11;;;;;;;27.70;14.30;;;8.10;99.90;;;;;;4943370;28;20063;-83
2023/04/29 04:03:42;;;;;;;22.08;14.10;;;10.70;99.90;;;;;;4960459;28;20087;-83
2023/04/29 04:06:07;;;;;;;25.90;14.90;;;8.30;99.90;;;;;;4945277;28;20055;-84
2023/04/29 04:08:33;;;;;;;32.10;15.70;;;10.70;99.90;;;;;;4930829;28;20049;-83
2023/04/29 04:11:02;;;;;;;25.20;14.52;;;9.50;99.90;;;;;;4945639;28;20050;-84
2023/04/29 04:13:31;;;;;;;27.02;16.33;;;10.10;99.90;;;;;;4943649;29;20054;-84
2023/04/29 04:15:56;;;;;;;23.20;15.63;;;8.50;99.90;;;;;;4944418;28;20094;-83
2023/04/29 04:18:22;;;;;;;26.77;17.02;;;10.50;99.90;;;;;;4928120;28;20078;-84
2023/04/29 04:20:47;;;;;;;29.67;17.88;;;10.60;99.90;;;;;;4943264;29;20155;-83
2023/04/29 04:23:13;;;;;;;27.48;16.48;;;8.40;99.90;;;;;;4929830;28;20039;-84
2023/04/29 04:25:48;;;;;;;25.65;16.65;;;9.30;99.90;;;;;;4929508;28;20129;-83
2023/04/29 04:28:14;;;;;;;30.02;16.17;;;8.80;99.90;;;;;;4960372;28;20046;-84
2023/04/29 04:30:41;;;;;;;30.67;16.90;;;9.70;99.90;;;;;;4946066;28;20066;-83
2023/04/29 04:33:07;;;;;;;22.60;14.68;;;8.30;99.90;;;;;;4942648;28;20492;-83
2023/04/29 04:35:35;;;;;;;22.20;15.00;;;10.40;99.90;;;;;;4948241;28;20054;-82
2023/04/29 04:38:01;;;;;;;23.77;14.20;;;8.40;99.90;;;;;;4923640;28;20146;-84
2023/04/29 04:40:26;;;;;;;26.20;13.25;;;9.30;99.90;;;;;;4945472;28;20138;-84
2023/04/29 04:42:52;;;;;;;19.70;12.88;;;8.30;99.90;;;;;;4945597;28;20050;-83
2023/04/29 04:45:18;;;;;;;24.25;13.68;;;8.30;99.90;;;;;;4942985;29;20054;-82
2023/04/29 04:47:46;;;;;;;19.40;12.30;;;8.40;99.90;;;;;;4942036;29;20039;-82
2023/04/29 04:50:12;;;;;;;22.05;11.93;;;8.50;99.90;;;;;;4928755;28;20054;-82
2023/04/29 04:52:38;;;;;;;18.35;11.60;;;8.40;99.90;;;;;;4945634;28;20498;-83
2023/04/29 04:55:03;;;;;;;17.92;11.07;;;8.40;99.90;;;;;;4934344;28;20051;-83
2023/04/29 04:57:30;;;;;;;18.88;10.77;;;8.40;99.90;;;;;;4958181;28;20443;-83
2023/04/29 04:59:56;;;;;;;16.83;11.50;;;9.60;99.90;;;;;;4926797;28;20488;-83
2023/04/29 05:02:22;;;;;;;14.35;10.68;;;10.40;99.90;;;;;;4944590;28;20054;-83
2023/04/29 05:04:47;;;;;;;14.57;10.52;;;8.40;99.90;;;;;;4945987;28;20097;-83
2023/04/29 05:07:17;;;;;;;17.17;10.27;;;8.40;99.90;;;;;;4942733;28;20114;-83
2023/04/29 05:09:54;;;;;;;17.63;11.63;;;8.40;99.90;;;;;;4958113;28;20094;-85
2023/04/29 05:12:21;;;;;;;20.35;11.60;;;8.30;99.90;;;;;;4958287;28;20051;-82
2023/04/29 05:14:46;;;;;;;18.98;9.73;;;8.20;99.90;;;;;;4950029;28;20043;-82
2023/04/29 05:17:13;;;;;;;18.70;10.52;;;10.50;99.90;;;;;;4959116;28;20078;-82
2023/04/29 05:19:39;;;;;;;16.30;10.75;;;8.40;99.90;;;;;;4941855;29;20411;-82
2023/04/29 05:22:07;;;;;;;18.63;10.27;;;9.10;99.90;;;;;;4958922;28;20415;-82
2023/04/29 05:24:33;;;;;;;17.58;11.25;;;8.30;99.90;;;;;;4945347;28;20039;-82
2023/04/29 05:26:58;;;;;;;18.45;10.52;;;8.40;99.90;;;;;;4962048;28;20542;-82
2023/04/29 05:29:26;;;;;;;20.83;10.63;;;8.30;99.90;;;;;;4962455;28;20055;-81
2023/04/29 05:31:51;;;;;;;17.70;9.82;;;8.20;99.90;;;;;;4961481;28;20069;-83
2023/04/29 05:34:17;;;;;;;15.57;10.05;;;10.10;99.90;;;;;;4974883;28;20047;-82
2023/04/29 05:36:43;;;;;;;18.65;10.07;;;9.50;99.90;;;;;;4947690;28;20086;-83
2023/04/29 05:39:08;;;;;;;16.45;10.07;;;10.20;99.90;;;;;;4942976;28;20081;-83
2023/04/29 05:41:34;;;;;;;14.35;10.07;;;10.30;99.90;;;;;;4963089;28;20058;-83
2023/04/29 05:44:00;;;;;;;21.50;10.50;;;8.40;99.90;;;;;;4943498;28;20134;-82
2023/04/29 05:46:25;;;;;;;18.02;10.23;;;8.40;99.90;;;;;;4958385;28;20058;-82
2023/04/29 05:48:51;;;;;;;15.88;9.73;;;9.40;99.90;;;;;;4949172;28;20126;-83
2023/04/29 05:51:17;;;;;;;22.27;9.88;;;8.40;99.90;;;;;;4965860;28;20059;-83
2023/04/29 05:53:43;;;;;;;13.48;9.88;;;8.50;99.90;;;;;;4960227;28;20051;-82
2023/04/29 05:56:09;;;;;;;15.80;9.35;;;8.50;99.90;;;;;;4959199;28;20054;-82
2023/04/29 05:58:38;;;;;;;20.67;10.23;;;10.20;99.90;;;;;;4961897;28;20125;-82
2023/04/29 06:01:04;;;;;;;18.35;9.95;;;10.40;99.90;;;;;;4961084;28;20054;-83
2023/04/29 06:03:30;;;;;;;18.25;9.50;;;10.60;99.90;;;;;;4961898;28;20055;-83
2023/04/29 06:05:57;;;;;;;20.85;9.85;;;8.50;99.90;;;;;;4962082;28;20059;-83
2023/04/29 06:08:23;;;;;;;15.10;9.60;;;8.30;99.90;;;;;;4965444;28;20075;-83
2023/04/29 06:10:50;;;;;;;17.23;9.90;;;8.50;99.90;;;;;;4958130;28;20086;-83
2023/04/29 06:13:16;;;;;;;16.42;9.93;;;9.70;99.90;;;;;;4964556;28;20054;-83
2023/04/29 06:15:48;;;;;;;14.35;10.73;;;9.30;99.90;;;;;;4964795;28;20047;-82
2023/04/29 06:18:13;;;;;;;16.48;10.10;;;8.60;99.90;;;;;;4959550;28;20057;-82
2023/04/29 06:20:41;;;;;;;17.52;10.52;;;9.60;99.90;;;;;;4963118;28;20055;-82
2023/04/29 06:23:08;;;;;;;17.73;9.82;;;8.60;99.90;;;;;;4966363;28;20470;-83
2023/04/29 06:25:37;;;;;;;14.60;8.95;;;8.50;99.90;;;;;;4962541;28;20055;-84
2023/04/29 06:28:04;;;;;;;17.05;8.93;;;10.80;99.90;;;;;;4976795;28;20459;-81
2023/04/29 06:30:30;;;;;;;13.18;9.75;;;8.60;99.90;;;;;;4964781;28;20379;-83
2023/04/29 06:32:56;;;;;;;15.20;9.60;;;8.60;99.90;;;;;;4965217;28;20055;-83
2023/04/29 06:35:21;;;;;;;15.45;9.55;;;8.50;99.90;;;;;;4964094;28;20488;-83
2023/04/29 06:37:47;;;;;;;15.38;9.55;;;8.60;99.90;;;;;;4963404;28;20051;-83
2023/04/29 06:40:13;;;;;;;22.15;10.73;;;9.10;99.90;;;;;;4964273;28;20126;-83
2023/04/29 06:42:39;;;;;;;19.30;9.18;;;8.70;99.90;;;;;;4963607;28;20816;-82
2023/04/29 06:45:05;;;;;;;14.23;9.27;;;10.70;99.90;;;;;;4964735;28;20509;-81
2023/04/29 06:47:31;;;;;;;17.25;9.88;;;8.70;99.90;;;;;;4952101;28;20117;-83
2023/04/29 06:49:57;;;;;;;15.88;9.75;;;10.00;99.90;;;;;;4966606;28;20049;-83
2023/04/29 06:52:23;;;;;;;16.85;9.23;;;11.00;99.90;;;;;;4968761;28;20055;-84
2023/04/29 06:54:50;;;;;;;17.15;9.45;;;10.20;99.90;;;;;;4969359;28;20104;-83
2023/04/29 06:57:19;;;;;;;13.57;8.82;;;8.50;99.90;;;;;;4948366;28;20059;-83
2023/04/29 06:59:45;;;;;;;15.68;9.55;;;9.60;99.90;;;;;;4969465;28;20050;-83
2023/04/29 07:02:11;;;;;;;16.05;12.82;;;8.90;99.90;;;;;;4934542;28;20059;-83
2023/04/29 07:04:36;;;;;;;15.15;9.55;;;10.20;99.90;;;;;;4948075;28;20070;-83
2023/04/29 07:07:15;;;;;;;15.88;9.38;;;8.90;99.90;;;;;;4966141;28;20137;-83
2023/04/29 07:10:03;;;;;;;14.68;8.32;;;9.00;99.90;;;;;;4953676;28;20473;-84
2023/04/29 07:12:29;;;;;;;15.60;8.80;;;9.10;99.90;;;;;;4950569;28;20142;-84
2023/04/29 07:14:58;;;;;;;15.98;8.32;;;10.60;99.90;;;;;;4970437;28;20075;-84
2023/04/29 07:17:24;;;;;;;19.17;9.05;;;10.00;99.90;;;;;;4948971;28;20070;-83
2023/04/29 07:19:50;;;;;;;12.75;8.18;;;11.20;99.90;;;;;;4949042;28;20047;-83
2023/04/29 07:22:19;;;;;;;17.88;9.85;;;9.20;99.90;;;;;;4966217;28;20054;-82
2023/04/29 07:24:45;;;;;;;17.50;9.20;;;11.50;99.90;;;;;;4950878;28;20066;-81
2023/04/29 07:27:20;;;;;;;16.38;8.82;;;10.30;99.90;;;;;;4950995;28;20521;-82
2023/04/29 07:29:49;;;;;;;17.50;8.63;;;9.30;99.90;;;;;;4944990;28;20043;-84
2023/04/29 07:32:24;;;;;;;18.50;9.82;;;9.30;99.90;;;;;;4964987;28;20050;-82
2023/04/29 07:34:51;;;;;;;13.55;8.32;;;9.40;99.90;;;;;;4964079;28;20625;-82
2023/04/29 07:37:23;;;;;;;18.13;8.48;;;11.40;99.90;;;;;;4959779;28;20494;-82
2023/04/29 07:39:49;;;;;;;20.40;8.65;;;11.40;99.90;;;;;;4946541;28;20127;-82
2023/04/29 07:42:22;;;;;;;13.95;7.68;;;9.50;99.90;;;;;;4946920;28;20066;-83
2023/04/29 07:44:48;;;;;;;12.73;8.85;;;9.50;99.90;;;;;;4965948;28;20522;-81
2023/04/29 07:47:13;;;;;;;15.48;7.60;;;11.90;99.90;;;;;;4943756;28;20511;-83
2023/04/29 07:49:40;;;;;;;19.05;6.93;;;11.30;99.90;;;;;;4941696;28;20047;-83
2023/04/29 07:52:08;;;;;;;35.72;8.02;;;11.90;99.90;;;;;;4946272;28;20065;-87
2023/04/29 07:54:35;;;;;;;12.95;6.95;;;11.90;99.90;;;;;;4944721;28;20043;-86
2023/04/29 07:57:03;;;;;;;14.63;7.55;;;;;;;;;;4963127;28;20057;-86
2023/04/29 07:59:29;;;;;;;11.00;7.25;;;9.70;99.90;;;;;;4962926;28;20076;-85
2023/04/29 08:01:56;;;;;;;10.57;7.00;;;9.90;99.90;;;;;;4962709;28;20050;-85
2023/04/29 08:04:22;;;;;;;14.77;7.55;;;;;;;;;;4964222;28;20125;-87
2023/04/29 08:06:48;;;;;;;14.55;6.18;;;9.80;99.90;;;;;;4961010;28;20050;-86
2023/04/29 08:09:14;;;;;;;17.45;7.57;;;11.70;99.90;;;;;;4945822;28;20510;-85
2023/04/29 08:11:40;;;;;;;19.10;7.55;;;10.30;99.90;;;;;;4961304;28;20961;-83
2023/04/29 08:14:06;;;;;;;15.88;6.97;;;11.30;99.90;;;;;;4957322;28;20483;-81
2023/04/29 08:16:32;;;;;;;10.40;6.78;;;9.90;99.90;;;;;;4960913;28;20086;-83
2023/04/29 08:18:57;;;;;;;14.40;6.93;;;11.70;99.90;;;;;;4956715;28;20051;-83
2023/04/29 08:21:23;;;;;;;13.93;7.55;;;10.00;99.90;;;;;;4962102;28;20106;-82
2023/04/29 08:23:49;;;;;;;20.98;7.07;;;11.00;99.90;;;;;;4958510;28;20491;-82
2023/04/29 08:26:14;;;;;;;10.57;6.30;;;10.00;99.90;;;;;;4961035;28;20058;-82
2023/04/29 08:28:40;;;;;;;14.52;7.05;;;10.00;99.90;;;;;;4961397;28;20050;-83
2023/04/29 08:31:06;;;;;;;12.80;6.97;;;11.90;99.90;;;;;;4964196;28;20051;-83
2023/04/29 08:33:41;;;;;;;11.13;6.53;;;11.90;99.90;;;;;;4964672;28;20051;-82
2023/04/29 08:36:07;;;;;;;11.60;6.22;;;12.30;99.90;;;;;;4961842;28;20064;-82
2023/04/29 08:38:33;;;;;;;14.90;6.40;;;10.10;99.90;;;;;;4966859;28;20065;-81
2023/04/29 08:40:59;;;;;;;11.60;6.45;;;11.70;99.90;;;;;;4967386;28;20134;-82
2023/04/29 08:43:26;;;;;;;8.68;5.72;;;11.50;99.90;;;;;;4968526;28;20094;-81
2023/04/29 08:45:52;;;;;;;9.70;6.00;;;10.20;99.90;;;;;;4968197;28;20046;-81
2023/04/29 08:48:18;;;;;;;18.95;6.25;;;10.20;99.90;;;;;;4949970;28;20081;-81
2023/04/29 08:50:44;;;;;;;12.00;5.82;;;11.60;99.90;;;;;;4957460;28;20066;-81
2023/04/29 08:53:11;;;;;;;8.98;5.78;;;10.30;99.90;;;;;;4971508;28;20050;-81
2023/04/29 08:55:41;;;;;;;10.48;5.57;;;12.10;99.90;;;;;;4965758;28;20139;-81
2023/04/29 08:58:08;;;;;;;10.95;5.65;;;10.40;99.90;;;;;;4930656;28;20262;-83
2023/04/29 09:00:35;;;;;;;9.18;5.38;;;10.30;99.90;;;;;;4946493;28;20058;-82
2023/04/29 09:03:14;;;;;;;7.68;5.10;;;12.00;99.90;;;;;;4965034;28;20047;-82
2023/04/29 09:05:41;;;;;;;8.18;5.00;;;10.40;99.90;;;;;;4932649;28;20081;-82
2023/04/29 09:08:07;;;;;;;10.30;5.88;;;10.40;99.90;;;;;;4945035;28;20098;-82
2023/04/29 09:10:36;;;;;;;12.93;5.43;;;10.50;99.90;;;;;;4960945;28;20051;-82
2023/04/29 09:13:01;;;;;;;8.38;5.07;;;12.40;99.90;;;;;;4961303;28;20074;-82
2023/04/29 09:15:27;;;;;;;7.13;4.72;;;11.50;99.90;;;;;;4960302;28;20507;-81
2023/04/29 09:17:53;;;;;;;8.60;4.40;;;12.30;99.90;;;;;;4960283;28;20054;-82
2023/04/29 09:20:19;;;;;;;8.20;4.85;;;9.20;99.90;;;;;;4948507;28;20137;-81
2023/04/29 09:22:53;;;;;;;13.25;5.63;;;10.60;99.90;;;;;;4946513;28;20066;-81
2023/04/29 09:25:19;;;;;;;11.80;6.53;;;12.50;99.90;;;;;;4933336;28;20051;-81
2023/04/29 09:27:45;;;;;;;9.20;5.18;;;10.70;99.90;;;;;;4948946;28;20042;-82
2023/04/29 09:30:12;;;;;;;14.77;5.40;;;12.80;99.90;;;;;;4948542;28;20058;-81
2023/04/29 09:32:38;;;;;;;9.07;6.20;;;10.80;99.90;;;;;;4948400;28;20503;-82
2023/04/29 09:35:24;;;;;;;20.77;6.00;;;10.80;99.90;;;;;;4932555;28;20530;-83
2023/04/29 09:38:11;;;;;;;7.95;5.60;;;11.00;99.90;;;;;;4953139;28;20059;-89
2023/04/29 09:40:36;;;;;;;12.18;5.47;;;10.90;99.90;;;;;;4952458;28;20054;-92
2023/04/29 09:43:02;;;;;;;7.07;5.07;;;9.30;99.90;;;;;;4969807;28;20061;-80
2023/04/29 09:45:40;;;;;;;26.83;5.82;;;11.10;99.90;;;;;;4972785;28;20047;-82
2023/04/29 09:48:08;;;;;;;10.88;4.95;;;11.10;99.90;;;;;;4979321;28;20143;-87
2023/04/29 09:50:41;;;;;;;9.93;4.78;;;13.50;99.90;;;;;;4974337;28;20109;-90
2023/04/29 09:53:08;;;;;;;27.95;7.45;;;11.20;99.90;;;;;;4956150;28;20082;-85
2023/04/29 09:55:35;;;;;;;11.48;6.28;;;11.70;99.90;;;;;;4965092;28;20058;-90
2023/04/29 09:58:03;;;;;;;12.35;6.60;;;13.20;99.90;;;;;;4970710;28;20047;-90
2023/04/29 10:00:33;;;;;;;11.27;5.55;;;11.50;99.90;;;;;;4969721;28;20090;-88
2023/04/29 10:03:04;;;;;;;12.43;5.45;;;13.00;99.90;;;;;;4971578;28;20062;-88
2023/04/29 10:05:40;;;;;;;9.57;6.10;;;11.50;99.90;;;;;;4969223;28;20053;-87
2023/04/29 10:08:14;;;;;;;7.53;5.00;;;11.50;99.90;;;;;;4968346;28;20481;-85
2023/04/29 10:10:42;;;;;;;11.15;5.22;;;11.50;99.90;;;;;;4967951;28;20086;-88
2023/04/29 10:13:08;;;;;;;13.48;5.28;;;11.60;99.90;;;;;;4974864;28;20058;-87
2023/04/29 10:15:51;;;;;;;5.50;4.85;;;11.70;99.90;;;;;;4958980;28;20133;-91
2023/04/29 10:18:30;;;;;;;10.80;5.70;;;12.50;99.90;;;;;;4987877;28;20078;-88
2023/04/29 10:20:59;;;;;;;10.07;6.55;;;11.70;99.90;;;;;;4967535;28;20047;-87
2023/04/29 10:23:29;;;;;;;9.65;5.88;;;11.90;99.90;;;;;;4973057;28;20047;-89
2023/04/29 10:25:59;;;;;;;6.80;4.63;;;11.90;99.90;;;;;;4972540;28;20054;-88
2023/04/29 10:28:31;;;;;;;9.90;6.20;;;14.20;99.90;;;;;;4973919;28;20090;-85
2023/04/29 10:30:59;;;;;;;9.85;5.93;;;13.50;99.90;;;;;;4959001;28;20070;-88
2023/04/29 10:33:29;;;;;;;9.05;5.68;;;12.00;99.90;;;;;;4975480;28;20039;-87
2023/04/29 10:35:55;;;;;;;7.80;5.03;;;12.10;99.90;;;;;;4966244;28;20113;-83
2023/04/29 10:38:39;;;;;;;9.80;4.97;;;12.20;99.90;;;;;;4966899;28;20042;-87
2023/04/29 10:41:12;;;;;;;17.35;10.10;;;12.40;99.90;;;;;;4967735;28;20090;-81
2023/04/29 10:43:40;;;;;;;8.13;4.75;;;12.30;99.90;;;;;;4969490;28;20053;-86
2023/04/29 10:46:25;;;;;;;11.60;4.85;;;13.50;99.90;;;;;;4984647;28;20054;-90
2023/04/29 10:49:02;;;;;;;8.60;4.05;;;12.50;99.90;;;;;;4958583;28;20499;-78
2023/04/29 10:51:41;;;;;;;6.13;3.40;;;12.60;99.90;;;;;;4977844;28;20105;-83
2023/04/29 10:54:24;;;;;;;8.95;3.28;;;12.70;99.90;;;;;;4961750;28;20059;-83
2023/04/29 10:56:54;;;;;;;10.55;3.67;;;12.90;99.90;;;;;;4934192;29;20082;-82
2023/04/29 10:59:32;;;;;;;6.75;3.28;;;12.90;99.90;;;;;;4945951;28;20506;-84
2023/04/29 11:01:59;;;;;;;5.63;2.78;;;13.00;99.90;;;;;;4963319;28;20507;-86
2023/04/29 11:04:30;;;;;;;3.80;2.42;;;13.10;99.90;;;;;;4954428;28;20082;-84
2023/04/29 11:06:58;;;;;;;6.97;4.03;;;13.30;99.90;;;;;;4934634;28;20525;-87
2023/04/29 11:09:28;;;;;;;3.97;2.03;;;14.30;99.90;;;;;;4966170;28;20086;-90
2023/04/29 11:12:09;;;;;;;5.43;1.83;;;13.50;99.90;;;;;;4932716;28;20054;-87
2023/04/29 11:14:48;;;;;;;3.13;1.75;;;13.60;99.90;;;;;;4928394;28;20051;-89
2023/04/29 11:17:16;;;;;;;5.25;2.08;;;14.90;99.90;;;;;;4949763;28;20086;-84
2023/04/29 11:19:50;;;;;;;3.75;2.00;;;13.80;99.90;;;;;;4963650;28;20134;-85
2023/04/29 11:22:27;;;;;;;4.40;2.05;;;13.90;99.90;;;;;;4974037;28;20133;-86
2023/04/29 11:25:06;;;;;;;2.78;1.80;;;14.00;99.90;;;;;;4946878;28;20039;-85
2023/04/29 11:27:37;;;;;;;3.05;2.10;;;14.00;99.90;;;;;;4965407;28;20142;-79
2023/04/29 11:30:14;;;;;;;4.22;1.60;;;15.60;99.90;;;;;;4928085;28;20117;-89
2023/04/29 11:32:41;;;;;;;5.90;1.77;;;14.00;99.90;;;;;;4964029;28;20066;-83
2023/04/29 11:35:11;;;;;;;3.75;0.85;;;14.00;99.90;;;;;;4945971;28;20119;-83
2023/04/29 11:37:39;;;;;;;3.72;1.30;;;14.10;99.90;;;;;;4949685;28;20111;-86
2023/04/29 11:40:09;;;;;;;4.95;1.30;;;14.20;99.90;;;;;;4946982;28;20055;-86
2023/04/29 11:42:51;;;;;;;2.28;1.40;;;14.20;99.90;;;;;;4945322;28;20059;-86
2023/04/29 11:45:21;;;;;;;3.45;1.45;;;14.60;99.90;;;;;;4943754;29;20051;-86
2023/04/29 11:47:52;;;;;;;5.10;2.10;;;14.50;99.90;;;;;;4936298;28;20114;-86
2023/04/29 11:50:18;;;;;;;6.60;2.60;;;16.30;99.90;;;;;;4931700;28;20054;-85
2023/04/29 11:52:48;;;;;;;6.63;1.98;;;14.70;99.90;;;;;;4942915;28;20051;-86
2023/04/29 11:55:18;;;;;;;5.93;2.17;;;14.80;99.90;;;;;;4948277;28;20512;-86
2023/04/29 11:57:47;;;;;;;3.17;1.85;;;15.10;99.90;;;;;;4965406;28;20054;-86
2023/04/29 12:00:15;;;;;;;6.57;2.67;;;14.90;99.90;;;;;;4958063;28;20052;-85
2023/04/29 12:02:45;;;;;;;6.32;2.30;;;15.00;99.90;;;;;;4935881;28;20051;-84
2023/04/29 12:05:15;;;;;;;2.88;2.00;;;15.10;99.90;;;;;;4980974;28;20061;-87
2023/04/29 12:07:42;;;;;;;4.53;2.10;;;15.20;99.90;;;;;;4962349;28;20059;-87
2023/04/29 12:10:11;;;;;;;2.17;1.80;;;15.30;99.90;;;;;;4959926;28;20134;-87
2023/04/29 12:12:42;;;;;;;9.82;3.00;;;15.40;99.90;;;;;;4960728;28;20067;-89
2023/04/29 12:15:10;;;;;;;7.75;2.30;;;15.40;99.90;;;;;;4942281;29;20059;-88
2023/04/29 12:17:36;;;;;;;4.35;2.38;;;15.50;99.90;;;;;;4950492;28;20069;-88
2023/04/29 12:20:02;;;;;;;5.93;2.10;;;15.60;99.90;;;;;;4927223;29;20138;-88
2023/04/29 12:22:31;;;;;;;4.88;2.22;;;15.50;99.90;;;;;;4943012;28;20499;-88
2023/04/29 12:24:58;;;;;;;4.88;1.60;;;15.60;99.90;;;;;;4966723;28;20261;-88
2023/04/29 12:27:28;;;;;;;3.45;1.67;;;16.60;99.90;;;;;;4927979;29;20488;-87
2023/04/29 12:29:56;;;;;;;4.75;1.50;;;15.80;99.90;;;;;;4961759;28;20568;-89
2023/04/29 12:32:23;;;;;;;4.82;1.23;;;15.90;99.90;;;;;;4961620;28;20093;-87
2023/04/29 12:34:53;;;;;;;6.20;1.50;;;16.00;99.90;;;;;;4960683;28;20051;-88
2023/04/29 12:37:22;;;;;;;3.17;1.38;;;16.20;99.90;;;;;;4959457;28;20134;-91
2023/04/29 12:39:49;;;;;;;7.05;4.97;;;16.20;99.90;;;;;;4962393;28;20403;-89
2023/04/29 12:42:18;;;;;;;1.50;1.10;;;16.30;99.90;;;;;;4959678;28;20055;-88
2023/04/29 12:44:47;;;;;;;3.55;1.55;;;16.30;99.90;;;;;;4943898;28;20170;-89
2023/04/29 12:47:14;;;;;;;4.82;1.40;;;16.50;99.90;;;;;;4962144;28;20093;-88